Time;durP1;ratioP1;P1;durP2;ratioP2;P2;SDS_P1;SDS_P2;PMS_P1;PMS_P2;Temp;Humidity;BMP_temperature;BMP_pressure;BME280_temperature;BME280_humidity;BME280_pressure;Samples;Min_cycle;Max_cycle;Signal;HPM_P1;HPM_P2
2022/01/06 00:02:00;;;;;;;33.33;4.43;;;;;;;;;;5100113;28;20054;-72
2022/01/06 00:05:05;;;;;;;17.75;3.55;;;;;;;;;;5112761;28;20055;-73
2022/01/06 00:08:09;;;;;;;30.13;4.63;;;;;;;;;;5112654;28;20387;-73
2022/01/06 00:11:15;;;;;;;21.67;4.20;;;;;;;;;;5099660;28;20046;-73
2022/01/06 00:14:34;;;;;;;26.25;4.53;;;;;;;;;;5112448;28;20411;-72
2022/01/06 00:18:09;;;;;;;22.60;4.93;;;;;;;;;;5112435;28;20061;-73
2022/01/06 00:24:31;;;;;;;19.77;3.63;;;;;;;;;;5112443;28;20513;-73
2022/01/06 00:27:35;;;;;;;21.08;4.05;;;;;;;;;;5112162;28;20042;-73
2022/01/06 00:30:40;;;;;;;24.33;3.40;;;;;;;;;;5111961;28;20518;-73
2022/01/06 00:33:44;;;;;;;23.60;3.03;;;;;;;;;;5099487;28;20051;-72
2022/01/06 00:36:49;;;;;;;15.75;3.08;;;;;;;;;;5112131;28;20039;-73
2022/01/06 00:39:53;;;;;;;31.58;4.15;;;;;;;;;;5099105;28;20058;-73
2022/01/06 00:42:57;;;;;;;23.75;3.45;;;;;;;;;;5111973;28;20046;-72
2022/01/06 00:46:02;;;;;;;17.42;2.85;;;;;;;;;;5112078;28;20039;-72
2022/01/06 00:49:06;;;;;;;15.20;3.40;;;;;;;;;;5099402;28;20530;-72
2022/01/06 00:52:11;;;;;;;23.75;3.67;;;;;;;;;;5111843;28;20051;-73
2022/01/06 00:55:18;;;;;;;15.82;3.75;;;;;;;;;;5110587;28;20066;-72
2022/01/06 00:58:22;;;;;;;21.13;3.85;;;;;;;;;;5111819;28;20046;-73
2022/01/06 01:01:27;;;;;;;20.00;3.80;;;;;;;;;;5111757;28;20043;-72
2022/01/06 01:04:31;;;;;;;23.42;4.10;;;;;;;;;;5111653;28;20050;-72
2022/01/06 01:07:35;;;;;;;24.00;3.55;;;;;;;;;;5087421;28;20038;-73
2022/01/06 01:10:40;;;;;;;29.90;4.30;;;;;;;;;;5111382;28;20055;-73
2022/01/06 01:13:57;;;;;;;27.58;3.20;;;;;;;;;;5111803;28;20050;-72
2022/01/06 01:17:03;;;;;;;26.92;3.78;;;;;;;;;;5098610;28;20042;-72
2022/01/06 01:20:08;;;;;;;25.88;4.05;;;;;;;;;;5099175;28;20055;-72
2022/01/06 01:23:13;;;;;;;34.63;4.07;;;;;;;;;;5111457;28;20042;-72
2022/01/06 01:26:17;;;;;;;44.80;5.95;;;;;;;;;;5111312;28;20047;-72
2022/01/06 01:29:22;;;;;;;24.88;4.10;;;;;;;;;;5098835;28;20039;-73
2022/01/06 01:32:33;;;;;;;22.50;3.55;;;;;;;;;;5111280;28;20042;-71
2022/01/06 01:35:38;;;;;;;32.95;4.90;;;;;;;;;;5099033;28;20062;-73
2022/01/06 01:38:42;;;;;;;38.60;5.95;;;;;;;;;;5111389;28;20047;-72
2022/01/06 01:41:46;;;;;;;23.80;4.72;;;;;;;;;;5111704;28;20042;-72
2022/01/06 01:44:51;;;;;;;31.58;4.18;;;;;;;;;;5111701;28;20043;-72
2022/01/06 01:47:58;;;;;;;28.00;4.47;;;;;;;;;;5099089;28;20414;-72
2022/01/06 01:51:02;;;;;;;22.17;3.97;;;;;;;;;;5111559;28;20039;-72
2022/01/06 01:54:06;;;;;;;35.40;4.25;;;;;;;;;;5111278;28;20402;-72
2022/01/06 01:57:10;;;;;;;37.92;4.60;;;;;;;;;;5111480;28;20043;-71
2022/01/06 02:00:16;;;;;;;27.45;3.75;;;;;;;;;;5098820;28;20506;-72
2022/01/06 02:03:20;;;;;;;30.63;4.00;;;;;;;;;;5111147;28;20050;-72
2022/01/06 02:06:25;;;;;;;27.40;4.55;;;;;;;;;;5112098;28;20047;-72
2022/01/06 02:09:29;;;;;;;25.08;3.97;;;;;;;;;;5102519;28;20042;-72
2022/01/06 02:12:36;;;;;;;30.02;4.57;;;;;;;;;;5102503;28;20050;-71
2022/01/06 02:15:41;;;;;;;42.40;5.72;;;;;;;;;;5114633;28;20063;-71
2022/01/06 02:18:45;;;;;;;25.95;4.80;;;;;;;;;;5102335;28;20421;-72
2022/01/06 02:21:49;;;;;;;25.30;4.32;;;;;;;;;;5102050;28;20494;-72
2022/01/06 02:24:54;;;;;;;32.33;5.40;;;;;;;;;;5101665;28;20606;-72
2022/01/06 02:28:00;;;;;;;25.08;3.60;;;;;;;;;;5114630;28;20494;-73
2022/01/06 02:31:05;;;;;;;30.75;4.30;;;;;;;;;;5101527;28;20034;-72
2022/01/06 02:34:09;;;;;;;28.17;5.32;;;;;;;;;;5114163;28;20050;-72
2022/01/06 02:37:14;;;;;;;33.20;4.63;;;;;;;;;;5090116;28;20043;-72
2022/01/06 02:40:19;;;;;;;27.88;4.75;;;;;;;;;;5114257;28;20050;-72
2022/01/06 02:43:25;;;;;;;30.33;4.68;;;;;;;;;;5114232;28;20066;-72
2022/01/06 02:46:29;;;;;;;31.38;4.55;;;;;;;;;;5114369;28;20046;-71
2022/01/06 02:49:33;;;;;;;28.90;3.78;;;;;;;;;;5113770;28;20043;-72
2022/01/06 02:52:37;;;;;;;34.25;4.35;;;;;;;;;;5114092;28;20042;-72
2022/01/06 02:55:47;;;;;;;24.15;3.92;;;;;;;;;;5113995;28;20055;-71
2022/01/06 02:58:51;;;;;;;32.35;5.03;;;;;;;;;;5101174;28;20051;-72
2022/01/06 03:01:56;;;;;;;27.98;4.65;;;;;;;;;;5114014;28;20038;-72
2022/01/06 03:05:00;;;;;;;32.83;4.38;;;;;;;;;;5113465;28;20434;-71
2022/01/06 03:08:04;;;;;;;33.35;3.92;;;;;;;;;;5113526;28;20042;-72
2022/01/06 03:11:09;;;;;;;36.08;4.60;;;;;;;;;;5113585;28;20042;-72
2022/01/06 03:14:13;;;;;;;26.35;3.67;;;;;;;;;;5113353;28;20047;-73
2022/01/06 03:17:18;;;;;;;28.80;4.80;;;;;;;;;;5113261;28;20043;-71
2022/01/06 03:20:23;;;;;;;26.58;3.60;;;;;;;;;;5113246;28;20042;-71
2022/01/06 03:23:27;;;;;;;30.85;4.45;;;;;;;;;;5113489;28;20050;-72
2022/01/06 03:26:32;;;;;;;34.97;5.43;;;;;;;;;;5100964;28;20619;-71
2022/01/06 03:29:39;;;;;;;28.83;4.68;;;;;;;;;;5113286;28;20400;-72
2022/01/06 03:32:44;;;;;;;28.42;4.50;;;;;;;;;;5100385;28;20528;-72
2022/01/06 03:35:48;;;;;;;25.50;4.00;;;;;;;;;;5113382;28;20078;-72
2022/01/06 03:38:53;;;;;;;24.52;4.32;;;;;;;;;;5113552;28;20494;-72
2022/01/06 03:41:58;;;;;;;33.47;3.95;;;;;;;;;;5112954;28;20047;-72
2022/01/06 03:45:04;;;;;;;29.73;3.67;;;;;;;;;;5113214;28;20493;-73
2022/01/06 03:48:08;;;;;;;29.70;5.15;;;;;;;;;;5088424;28;20034;-71
2022/01/06 03:51:12;;;;;;;27.45;3.65;;;;;;;;;;5112810;28;20051;-72
2022/01/06 03:54:17;;;;;;;28.92;4.88;;;;;;;;;;5112437;28;20054;-71
2022/01/06 03:57:21;;;;;;;34.00;4.30;;;;;;;;;;5112537;28;20039;-72
2022/01/06 04:00:25;;;;;;;23.30;4.95;;;;;;;;;;5112312;28;20050;-72
2022/01/06 04:03:30;;;;;;;28.55;4.03;;;;;;;;;;5112255;28;20047;-72
2022/01/06 04:06:34;;;;;;;18.17;3.65;;;;;;;;;;5112355;28;20043;-72
2022/01/06 04:09:39;;;;;;;25.23;4.68;;;;;;;;;;5112236;28;20502;-72
2022/01/06 04:12:43;;;;;;;28.40;4.00;;;;;;;;;;5111899;28;20042;-72
2022/01/06 04:15:48;;;;;;;28.25;4.50;;;;;;;;;;5112201;28;20051;-72
2022/01/06 04:18:52;;;;;;;25.35;3.95;;;;;;;;;;5099319;28;20501;-71
2022/01/06 04:21:56;;;;;;;34.25;4.53;;;;;;;;;;5111734;28;20030;-72
2022/01/06 04:25:04;;;;;;;24.00;4.35;;;;;;;;;;5099525;28;20411;-72
2022/01/06 04:28:08;;;;;;;28.23;4.30;;;;;;;;;;5111983;28;20509;-73
2022/01/06 04:31:13;;;;;;;33.65;4.85;;;;;;;;;;5111707;28;20047;-71
2022/01/06 04:34:17;;;;;;;30.85;4.18;;;;;;;;;;5111466;28;20050;-73
2022/01/06 04:37:21;;;;;;;28.52;3.70;;;;;;;;;;5111721;28;20407;-72
2022/01/06 04:40:25;;;;;;;33.85;4.00;;;;;;;;;;5111350;28;20059;-71
2022/01/06 04:43:30;;;;;;;32.20;5.03;;;;;;;;;;5111774;28;20034;-72
2022/01/06 04:46:34;;;;;;;21.83;4.03;;;;;;;;;;5111657;28;20407;-72
2022/01/06 04:49:38;;;;;;;24.83;4.05;;;;;;;;;;5111511;28;20046;-72
2022/01/06 04:52:43;;;;;;;42.78;4.63;;;;;;;;;;5111609;28;20046;-73
2022/01/06 04:55:49;;;;;;;27.90;4.32;;;;;;;;;;5111360;28;20046;-72
2022/01/06 04:58:54;;;;;;;30.83;4.47;;;;;;;;;;5111391;28;20043;-72
2022/01/06 05:01:58;;;;;;;27.23;3.70;;;;;;;;;;5111277;28;20042;-71
2022/01/06 05:05:02;;;;;;;26.80;5.35;;;;;;;;;;5087199;28;20042;-71
2022/01/06 05:08:06;;;;;;;33.70;5.30;;;;;;;;;;5111335;28;20047;-73
2022/01/06 05:11:11;;;;;;;33.15;4.70;;;;;;;;;;5111341;28;20517;-72
2022/01/06 05:14:15;;;;;;;27.70;4.53;;;;;;;;;;5111252;28;20055;-72
2022/01/06 05:17:20;;;;;;;28.65;5.57;;;;;;;;;;5111318;28;20042;-72
2022/01/06 05:20:25;;;;;;;28.08;3.83;;;;;;;;;;5110831;28;20556;-72
2022/01/06 05:23:29;;;;;;;20.13;4.13;;;;;;;;;;5111045;28;20046;-71
2022/01/06 05:26:34;;;;;;;32.92;4.47;;;;;;;;;;5111087;28;20051;-71
2022/01/06 05:29:38;;;;;;;21.38;4.15;;;;;;;;;;5111035;28;20576;-71
2022/01/06 05:32:43;;;;;;;28.02;3.97;;;;;;;;;;5111010;28;20035;-72
2022/01/06 05:35:47;;;;;;;28.70;4.30;;;;;;;;;;5111218;28;20536;-71
2022/01/06 05:38:52;;;;;;;21.08;4.05;;;;;;;;;;5098373;28;20521;-71
2022/01/06 05:41:56;;;;;;;28.05;4.43;;;;;;;;;;5112688;28;20039;-72
2022/01/06 05:45:00;;;;;;;33.42;4.60;;;;;;;;;;5102715;28;20485;-73
2022/01/06 05:48:05;;;;;;;25.67;5.05;;;;;;;;;;5114994;28;20039;-73
2022/01/06 05:51:12;;;;;;;24.63;4.53;;;;;;;;;;5102862;28;20157;-72
2022/01/06 05:54:16;;;;;;;31.92;7.43;;;;;;;;;;5114966;28;20058;-73
2022/01/06 05:57:21;;;;;;;32.45;5.35;;;;;;;;;;5114850;28;20601;-72
2022/01/06 06:00:25;;;;;;;28.42;4.97;;;;;;;;;;5102249;28;20046;-72
2022/01/06 06:03:30;;;;;;;30.60;5.13;;;;;;;;;;5114849;28;20054;-72
2022/01/06 06:06:34;;;;;;;26.85;5.40;;;;;;;;;;5114819;28;20047;-72
2022/01/06 06:09:39;;;;;;;24.80;4.35;;;;;;;;;;5114739;28;20042;-72
2022/01/06 06:12:43;;;;;;;43.83;6.68;;;;;;;;;;5102162;28;20039;-72
2022/01/06 06:15:48;;;;;;;34.85;5.15;;;;;;;;;;5114448;28;20050;-72
2022/01/06 06:18:52;;;;;;;32.15;5.05;;;;;;;;;;5114230;28;20043;-72
2022/01/06 06:21:56;;;;;;;35.90;5.28;;;;;;;;;;5114433;28;20039;-72
2022/01/06 06:25:01;;;;;;;25.95;5.07;;;;;;;;;;5114667;28;20042;-71
2022/01/06 06:28:05;;;;;;;37.30;5.63;;;;;;;;;;5114360;28;20057;-71
2022/01/06 06:31:09;;;;;;;30.83;5.25;;;;;;;;;;5114100;28;20055;-71
2022/01/06 06:34:14;;;;;;;33.63;6.60;;;;;;;;;;5113891;28;20059;-71
2022/01/06 06:37:18;;;;;;;33.40;6.88;;;;;;;;;;5101496;28;20050;-72
2022/01/06 06:40:23;;;;;;;32.42;6.20;;;;;;;;;;5113807;28;20039;-72
2022/01/06 06:43:27;;;;;;;25.38;5.63;;;;;;;;;;5113898;28;20051;-72
2022/01/06 06:46:32;;;;;;;24.65;5.18;;;;;;;;;;5114097;28;20374;-71
2022/01/06 06:49:37;;;;;;;27.63;6.03;;;;;;;;;;5101277;28;20050;-73
2022/01/06 06:52:41;;;;;;;26.85;5.80;;;;;;;;;;5113612;28;20047;-73
2022/01/06 06:55:46;;;;;;;28.88;5.22;;;;;;;;;;5113652;28;20047;-73
2022/01/06 06:58:50;;;;;;;32.20;6.05;;;;;;;;;;5113839;28;20042;-71
2022/01/06 07:01:54;;;;;;;29.80;6.53;;;;;;;;;;5113450;28;20062;-71
2022/01/06 07:04:59;;;;;;;34.15;6.40;;;;;;;;;;5113744;28;20502;-71
2022/01/06 07:08:03;;;;;;;33.72;6.50;;;;;;;;;;5113505;28;20054;-71
2022/01/06 07:11:08;;;;;;;45.22;6.78;;;;;;;;;;5100747;28;20039;-72
2022/01/06 07:14:12;;;;;;;30.90;6.75;;;;;;;;;;5113433;28;20068;-72
2022/01/06 07:17:16;;;;;;;30.15;6.90;;;;;;;;;;5113575;28;20040;-73
2022/01/06 07:20:21;;;;;;;27.58;6.80;;;;;;;;;;5113424;28;20054;-72
2022/01/06 07:23:25;;;;;;;27.55;5.57;;;;;;;;;;5113546;28;20048;-72
2022/01/06 07:26:29;;;;;;;38.58;6.88;;;;;;;;;;5113121;28;20035;-71
2022/01/06 07:29:34;;;;;;;30.77;6.35;;;;;;;;;;5113549;28;20049;-72
2022/01/06 07:32:56;;;;;;;34.63;7.35;;;;;;;;;;5113333;28;20038;-72
2022/01/06 07:36:00;;;;;;;30.02;6.47;;;;;;;;;;5112880;28;20050;-71
2022/01/06 07:39:05;;;;;;;31.85;6.47;;;;;;;;;;5112449;28;20055;-73
2022/01/06 07:42:10;;;;;;;35.08;6.60;;;;;;;;;;5112699;28;20039;-72
2022/01/06 07:45:15;;;;;;;34.78;7.00;;;;;;;;;;5113120;28;20043;-77
2022/01/06 07:48:26;;;;;;;28.48;7.50;;;;;;;;;;5077319;28;20035;-76
2022/01/06 07:51:31;;;;;;;28.35;6.20;;;;;;;;;;5112976;28;20051;-77
2022/01/06 07:54:35;;;;;;;29.38;5.93;;;;;;;;;;5112949;28;20663;-75
2022/01/06 07:57:39;;;;;;;32.08;6.95;;;;;;;;;;5100811;28;20042;-76
2022/01/06 08:00:43;;;;;;;34.58;8.43;;;;;;;;;;5112906;28;20039;-76
2022/01/06 08:03:48;;;;;;;34.97;8.43;;;;;;;;;;5112395;28;20050;-74
2022/01/06 08:06:52;;;;;;;42.95;9.32;;;;;;;;;;5112896;28;20047;-75
2022/01/06 08:09:57;;;;;;;36.03;10.02;;;;;;;;;;5112740;28;20051;-75
2022/01/06 08:13:01;;;;;;;27.73;8.38;;;;;;;;;;5112809;28;20050;-74
2022/01/06 08:16:06;;;;;;;41.42;9.38;;;;;;;;;;5112470;28;20058;-74
2022/01/06 08:19:11;;;;;;;29.88;7.60;;;;;;;;;;5112396;28;20043;-75
2022/01/06 08:22:15;;;;;;;36.85;7.60;;;;;;;;;;5099933;28;20418;-75
2022/01/06 08:25:20;;;;;;;48.72;9.70;;;;;;;;;;5112688;28;20074;-75
2022/01/06 08:28:24;;;;;;;33.67;9.20;;;;;;;;;;5112252;28;20394;-73
2022/01/06 08:31:28;;;;;;;37.58;9.63;;;;;;;;;;5112069;28;20062;-74
2022/01/06 08:34:33;;;;;;;42.50;10.45;;;;;;;;;;5099441;28;20047;-75
2022/01/06 08:37:38;;;;;;;38.63;11.35;;;;;;;;;;5112074;28;20506;-75
2022/01/06 08:40:42;;;;;;;47.00;13.50;;;;;;;;;;5099106;28;20058;-75
2022/01/06 08:43:46;;;;;;;44.45;9.32;;;;;;;;;;5111944;28;20043;-75
2022/01/06 08:46:52;;;;;;;57.53;15.73;;;;;;;;;;5111858;28;20503;-74
2022/01/06 08:49:56;;;;;;;39.45;13.77;;;;;;;;;;5111725;28;20035;-75
2022/01/06 08:53:01;;;;;;;49.30;13.25;;;;;;;;;;5111229;28;20053;-74
2022/01/06 08:56:06;;;;;;;40.28;10.90;;;;;;;;;;5110185;28;20055;-76
2022/01/06 08:59:10;;;;;;;49.95;8.63;;;;;;;;;;5110548;28;20062;-75
2022/01/06 09:02:14;;;;;;;49.92;9.82;;;;;;;;;;5111134;28;20034;-75
2022/01/06 09:05:19;;;;;;;38.00;6.97;;;;;;;;;;5098712;28;20047;-76
2022/01/06 09:08:23;;;;;;;39.33;7.13;;;;;;;;;;5111148;28;20042;-74
2022/01/06 09:11:27;;;;;;;37.10;6.90;;;;;;;;;;5087312;28;20410;-75
2022/01/06 09:14:32;;;;;;;29.25;6.13;;;;;;;;;;5111473;28;20525;-75
2022/01/06 09:17:38;;;;;;;30.05;6.55;;;;;;;;;;5110543;28;20055;-74
2022/01/06 09:20:43;;;;;;;32.50;6.30;;;;;;;;;;5111461;28;20046;-74
2022/01/06 09:23:47;;;;;;;31.92;5.82;;;;;;;;;;5111686;28;20046;-79
2022/01/06 09:26:51;;;;;;;30.52;6.15;;;;;;;;;;5111592;28;20059;-74
2022/01/06 09:30:14;;;;;;;22.83;6.25;;;;;;;;;;5111481;28;20047;-75
2022/01/06 09:33:19;;;;;;;31.75;6.45;;;;;;;;;;5099174;28;20043;-74
2022/01/06 09:36:24;;;;;;;34.22;6.15;;;;;;;;;;5098979;28;20054;-75
2022/01/06 09:39:28;;;;;;;36.45;6.35;;;;;;;;;;5111117;28;20047;-75
2022/01/06 09:42:33;;;;;;;33.80;6.78;;;;;;;;;;5111286;28;20047;-75
2022/01/06 09:45:37;;;;;;;31.88;6.78;;;;;;;;;;5111393;28;20418;-75
2022/01/06 09:48:42;;;;;;;21.45;5.65;;;;;;;;;;5098913;28;20051;-74
2022/01/06 09:51:46;;;;;;;39.47;6.78;;;;;;;;;;5111393;28;20501;-75
2022/01/06 09:54:51;;;;;;;32.20;6.90;;;;;;;;;;5110915;28;20054;-75
2022/01/06 09:57:57;;;;;;;33.42;7.13;;;;;;;;;;5111303;28;20047;-74
2022/01/06 10:01:03;;;;;;;29.00;5.13;;;;;;;;;;5110956;28;20050;-75
2022/01/06 10:04:17;;;;;;;27.50;4.95;;;;;;;;;;5098533;28;20042;-75
2022/01/06 10:07:21;;;;;;;33.50;4.78;;;;;;;;;;5098455;28;20043;-75
2022/01/06 10:10:25;;;;;;;34.58;5.93;;;;;;;;;;5098246;28;20051;-75
2022/01/06 10:13:32;;;;;;;29.83;5.55;;;;;;;;;;5110980;28;20083;-74
2022/01/06 10:16:39;;;;;;;18.95;5.30;;;;;;;;;;5098176;28;20058;-73
2022/01/06 10:19:44;;;;;;;19.13;5.13;;;;;;;;;;5110516;28;20058;-75
2022/01/06 10:22:53;;;;;;;20.17;5.47;;;;;;;;;;5110630;28;20047;-75
2022/01/06 10:25:58;;;;;;;16.70;4.80;;;;;;;;;;5098116;28;20046;-75
2022/01/06 10:29:04;;;;;;;21.67;5.20;;;;;;;;;;5113866;28;20034;-73
2022/01/06 10:32:10;;;;;;;17.67;5.20;;;;;;;;;;5114095;28;20043;-75
2022/01/06 10:35:17;;;;;;;31.33;7.65;;;;;;;;;;5114043;28;20050;-75
2022/01/06 10:38:28;;;;;;;27.25;7.47;;;;;;;;;;5114105;28;20101;-73
2022/01/06 10:41:32;;;;;;;36.67;7.47;;;;;;;;;;5114013;28;20047;-75
2022/01/06 10:44:51;;;;;;;22.38;6.47;;;;;;;;;;5101892;28;20050;-74
2022/01/06 10:47:56;;;;;;;16.90;5.35;;;;;;;;;;5114401;28;20122;-74
2022/01/06 10:51:01;;;;;;;21.40;4.75;;;;;;;;;;5100650;28;20043;-74
2022/01/06 10:54:10;;;;;;;20.52;5.03;;;;;;;;;;5112532;28;20046;-73
2022/01/06 10:57:18;;;;;;;31.05;6.25;;;;;;;;;;5100582;28;20055;-73
2022/01/06 11:00:23;;;;;;;35.92;5.70;;;;;;;;;;5112935;28;20038;-74
2022/01/06 11:03:36;;;;;;;22.95;5.85;;;;;;;;;;5100993;28;20438;-74
2022/01/06 11:06:42;;;;;;;26.27;6.28;;;;;;;;;;5113510;28;20043;-73
2022/01/06 11:09:49;;;;;;;21.95;5.07;;;;;;;;;;5100981;28;20057;-73
2022/01/06 11:12:54;;;;;;;28.88;5.40;;;;;;;;;;5100853;28;20047;-74
2022/01/06 11:15:58;;;;;;;35.17;5.88;;;;;;;;;;5100570;28;20410;-74
2022/01/06 11:19:04;;;;;;;22.67;5.10;;;;;;;;;;5100667;28;20494;-73
2022/01/06 11:22:10;;;;;;;27.58;5.45;;;;;;;;;;5113233;28;20046;-75
2022/01/06 11:25:14;;;;;;;28.52;5.35;;;;;;;;;;5113414;28;20067;-74
2022/01/06 11:28:18;;;;;;;22.88;4.22;;;;;;;;;;5113483;28;20102;-75
2022/01/06 11:31:25;;;;;;;24.45;4.65;;;;;;;;;;5112815;28;20509;-74
2022/01/06 11:34:36;;;;;;;27.77;6.43;;;;;;;;;;5113260;28;20055;-74
2022/01/06 11:37:40;;;;;;;;;;;;;;;;;;5100755;28;20059;-75
2022/01/06 11:40:44;;;;;;;25.00;4.97;;;;;;;;;;5091987;28;19923;-75
2022/01/06 11:43:49;;;;;;;24.10;4.93;;;;;;;;;;5092560;28;20040;-74
2022/01/06 11:46:56;;;;;;;31.92;5.45;;;;;;;;;;5092295;28;20035;-74
2022/01/06 11:50:12;;;;;;;28.83;6.35;;;;;;;;;;5091331;28;20047;-74
2022/01/06 11:53:17;;;;;;;23.13;5.85;;;;;;;;;;5092152;28;20047;-74
2022/01/06 11:56:23;;;;;;;26.58;5.75;;;;;;;;;;5079335;28;20067;-74
2022/01/06 11:59:32;;;;;;;10.27;3.50;;;;;;;;;;5091051;28;20106;-73
2022/01/06 12:02:36;;;;;;;16.30;4.55;;;;;;;;;;5091846;28;20481;-75
2022/01/06 12:05:52;;;;;;;21.40;4.72;;;;;;;;;;5091881;28;20039;-74
2022/01/06 12:08:57;;;;;;;29.85;6.50;;;;;;;;;;5091661;28;20507;-75
2022/01/06 12:12:05;;;;;;;17.08;4.55;;;;;;;;;;5091589;28;20486;-75
2022/01/06 12:15:10;;;;;;;26.45;6.47;;;;;;;;;;5091653;28;20047;-74
2022/01/06 12:18:19;;;;;;;50.30;21.15;;;;;;;;;;5090901;28;20043;-68
2022/01/06 12:21:23;;;;;;;43.95;10.88;;;;;;;;;;5091688;28;20051;-69
2022/01/06 12:24:27;;;;;;;19.02;5.00;;;;;;;;;;5091688;28;20039;-68
2022/01/06 12:27:34;;;;;;;23.02;4.38;;;;;;;;;;5111904;28;20399;-68
2022/01/06 12:30:38;;;;;;;28.20;4.50;;;;;;;;;;5111386;28;20038;-68
2022/01/06 12:33:44;;;;;;;31.50;5.38;;;;;;;;;;5111962;28;20042;-68
2022/01/06 12:36:48;;;;;;;25.75;4.68;;;;;;;;;;5111917;28;20053;-68
2022/01/06 12:39:52;;;;;;;35.78;5.43;;;;;;;;;;5111304;28;20066;-68
2022/01/06 12:42:56;;;;;;;15.68;4.47;;;;;;;;;;5099300;28;20390;-68
2022/01/06 12:46:02;;;;;;;20.65;5.75;;;;;;;;;;5111631;28;20502;-68
2022/01/06 12:49:08;;;;;;;16.15;3.85;;;;;;;;;;5111769;28;20039;-68
2022/01/06 12:52:13;;;;;;;20.20;4.20;;;;;;;;;;5099113;28;20517;-68
2022/01/06 12:55:18;;;;;;;19.77;3.85;;;;;;;;;;5111481;28;20417;-68
2022/01/06 12:58:26;;;;;;;19.33;4.00;;;;;;;;;;5099022;28;20526;-69
2022/01/06 13:01:31;;;;;;;10.63;3.58;;;;;;;;;;5111618;28;20047;-68
2022/01/06 13:04:36;;;;;;;31.40;6.05;;;;;;;;;;5111424;28;20043;-67
2022/01/06 13:07:40;;;;;;;25.55;5.25;;;;;;;;;;5111781;28;20043;-68
2022/01/06 13:10:44;;;;;;;22.25;8.30;;;;;;;;;;5111324;28;20051;-68
2022/01/06 13:13:58;;;;;;;17.00;4.63;;;;;;;;;;5111420;28;20386;-68
2022/01/06 13:17:20;;;;;;;25.08;5.97;;;;;;;;;;5111347;28;20398;-68
2022/01/06 13:20:24;;;;;;;22.30;4.70;;;;;;;;;;5086907;28;20050;-67
2022/01/06 13:26:49;;;;;;;20.13;5.85;;;;;;;;;;5111183;28;20047;-67
2022/01/06 13:29:53;;;;;;;27.65;6.90;;;;;;;;;;5110956;28;20058;-68
2022/01/06 13:32:58;;;;;;;18.70;4.88;;;;;;;;;;5111195;28;20038;-68
2022/01/06 13:36:04;;;;;;;21.42;4.18;;;;;;;;;;5110955;28;20054;-69
2022/01/06 13:39:09;;;;;;;22.48;4.55;;;;;;;;;;5110781;28;20047;-66
2022/01/06 13:42:46;;;;;;;19.38;5.30;;;;;;;;;;5111118;28;20051;-68
2022/01/06 13:45:51;;;;;;;22.67;5.85;;;;;;;;;;5111100;28;20266;-67
2022/01/06 13:52:19;;;;;;;24.63;5.07;;;;;;;;;;5111086;28;20082;-68
2022/01/06 13:55:23;;;;;;;21.70;4.88;;;;;;;;;;5111078;28;20058;-68
2022/01/06 13:58:28;;;;;;;24.77;5.20;;;;;;;;;;5110619;28;20062;-69
2022/01/06 14:01:33;;;;;;;23.65;5.30;;;;;;;;;;5110931;28;20047;-68
2022/01/06 14:04:39;;;;;;;30.65;5.75;;;;;;;;;;5115031;28;20054;-68
2022/01/06 14:07:42;;;;;;;25.58;4.60;;;;;;;;;;5114708;28;20038;-68
2022/01/06 14:10:47;;;;;;;40.60;6.30;;;;;;;;;;5114882;28;20047;-69
2022/01/06 14:13:51;;;;;;;23.67;4.88;;;;;;;;;;5102209;28;20521;-68
2022/01/06 14:16:56;;;;;;;42.33;6.28;;;;;;;;;;5114656;28;20054;-67
2022/01/06 14:20:00;;;;;;;29.40;8.07;;;;;;;;;;5114661;28;20113;-68
2022/01/06 14:23:04;;;;;;;28.92;6.22;;;;;;;;;;5114778;28;20494;-67
2022/01/06 14:26:12;;;;;;;26.25;4.75;;;;;;;;;;5114343;28;20406;-69
2022/01/06 14:29:16;;;;;;;29.63;7.65;;;;;;;;;;5101910;28;20039;-68
2022/01/06 14:32:20;;;;;;;28.60;5.63;;;;;;;;;;5114479;28;20055;-69
2022/01/06 14:35:25;;;;;;;22.92;4.90;;;;;;;;;;5114442;28;20520;-69
2022/01/06 14:38:29;;;;;;;26.00;4.63;;;;;;;;;;5114494;28;20177;-68
2022/01/06 14:41:33;;;;;;;27.33;4.88;;;;;;;;;;5114351;28;20066;-68
2022/01/06 14:44:37;;;;;;;29.30;5.97;;;;;;;;;;5114376;28;20375;-68
2022/01/06 14:47:42;;;;;;;23.92;5.43;;;;;;;;;;5114449;28;20063;-67
2022/01/06 14:50:46;;;;;;;39.20;5.75;;;;;;;;;;5114003;28;20039;-68
2022/01/06 14:53:51;;;;;;;22.00;4.60;;;;;;;;;;5113922;28;20410;-67
2022/01/06 14:56:55;;;;;;;28.55;4.95;;;;;;;;;;5113729;28;20050;-69
2022/01/06 14:59:59;;;;;;;27.13;5.15;;;;;;;;;;5101054;28;20047;-68
2022/01/06 15:03:04;;;;;;;33.88;5.53;;;;;;;;;;5113862;28;20046;-69
2022/01/06 15:06:09;;;;;;;21.73;4.95;;;;;;;;;;5113789;28;20043;-69
2022/01/06 15:09:13;;;;;;;31.25;7.65;;;;;;;;;;5113705;28;20051;-69
2022/01/06 15:12:18;;;;;;;40.05;8.05;;;;;;;;;;5113606;28;20050;-69
2022/01/06 15:15:23;;;;;;;35.60;8.60;;;;;;;;;;5112223;28;20081;-68
2022/01/06 15:18:27;;;;;;;31.50;7.85;;;;;;;;;;5113646;28;20042;-68
2022/01/06 15:21:31;;;;;;;31.60;6.93;;;;;;;;;;5113295;28;20043;-68
2022/01/06 15:24:35;;;;;;;32.30;6.53;;;;;;;;;;5113459;28;20351;-68
2022/01/06 15:27:41;;;;;;;36.00;10.82;;;;;;;;;;5113327;28;20042;-68
2022/01/06 15:30:45;;;;;;;31.70;8.38;;;;;;;;;;5100472;28;20038;-68
2022/01/06 15:33:49;;;;;;;30.42;5.90;;;;;;;;;;5113239;28;20054;-69
2022/01/06 15:36:53;;;;;;;25.73;6.13;;;;;;;;;;5112808;28;20056;-69
2022/01/06 15:39:59;;;;;;;35.70;8.23;;;;;;;;;;5112721;28;20055;-68
2022/01/06 15:43:07;;;;;;;36.75;9.45;;;;;;;;;;5113123;28;20474;-67
2022/01/06 15:46:12;;;;;;;32.70;9.15;;;;;;;;;;5100280;28;20386;-68
2022/01/06 15:49:16;;;;;;;25.45;7.32;;;;;;;;;;5112689;28;20043;-68
2022/01/06 15:52:21;;;;;;;23.73;6.88;;;;;;;;;;5112776;28;20387;-67
2022/01/06 15:55:27;;;;;;;23.50;6.60;;;;;;;;;;5112547;28;20051;-67
2022/01/06 15:58:31;;;;;;;25.00;5.60;;;;;;;;;;5112883;28;20392;-68
2022/01/06 16:05:12;;;;;;;31.50;6.55;;;;;;;;;;5112798;28;20494;-69
2022/01/06 16:08:16;;;;;;;28.40;7.68;;;;;;;;;;5112763;28;20066;-67
2022/01/06 16:11:22;;;;;;;29.98;7.22;;;;;;;;;;5112582;28;20035;-68
2022/01/06 16:14:26;;;;;;;29.02;7.13;;;;;;;;;;5112743;28;20046;-68
2022/01/06 16:17:31;;;;;;;38.58;9.73;;;;;;;;;;5112433;28;20056;-68
2022/01/06 16:20:35;;;;;;;31.30;8.57;;;;;;;;;;5099717;28;20395;-67
2022/01/06 16:23:43;;;;;;;32.97;8.32;;;;;;;;;;5112253;28;20042;-67
2022/01/06 16:26:50;;;;;;;29.48;7.32;;;;;;;;;;5111661;28;20039;-68
2022/01/06 16:30:08;;;;;;;33.05;7.55;;;;;;;;;;5111990;28;20125;-68
2022/01/06 16:33:13;;;;;;;30.95;8.43;;;;;;;;;;5112014;28;20047;-69
2022/01/06 16:36:17;;;;;;;38.97;10.00;;;;;;;;;;5098627;28;20047;-70
2022/01/06 16:39:25;;;;;;;32.20;9.93;;;;;;;;;;5111510;28;20047;-74
2022/01/06 16:42:29;;;;;;;34.95;11.57;;;;;;;;;;5099437;28;20047;-72
2022/01/06 16:45:36;;;;;;;44.20;13.07;;;;;;;;;;5112593;28;20039;-73
2022/01/06 16:48:41;;;;;;;39.00;13.20;;;;;;;;;;5112038;28;20046;-72
2022/01/06 16:51:46;;;;;;;37.83;12.90;;;;;;;;;;5111695;28;20054;-70
2022/01/06 16:54:52;;;;;;;35.33;13.30;;;;;;;;;;5098749;28;20058;-71
2022/01/06 16:57:56;;;;;;;47.88;15.73;;;;;;;;;;5111400;28;20059;-71
2022/01/06 17:01:00;;;;;;;44.30;14.68;;;;;;;;;;5111699;28;20524;-70
2022/01/06 17:04:06;;;;;;;39.58;14.75;;;;;;;;;;5111567;28;20042;-71
2022/01/06 17:07:11;;;;;;;43.15;15.52;;;;;;;;;;5099016;28;20058;-70
2022/01/06 17:10:16;;;;;;;47.38;15.90;;;;;;;;;;5111354;28;20035;-72
2022/01/06 17:13:23;;;;;;;59.85;17.77;;;;;;;;;;5111385;28;20051;-71
2022/01/06 17:16:30;;;;;;;114.47;56.03;;;;;;;;;;5098551;28;20051;-71
2022/01/06 17:19:34;;;;;;;116.15;48.78;;;;;;;;;;5111456;28;20066;-71
2022/01/06 17:22:38;;;;;;;112.13;54.90;;;;;;;;;;5111291;28;20038;-70
2022/01/06 17:25:43;;;;;;;82.25;35.90;;;;;;;;;;5111012;28;20517;-70
2022/01/06 17:28:47;;;;;;;58.92;22.80;;;;;;;;;;5098490;28;20047;-72
2022/01/06 17:31:51;;;;;;;52.75;19.30;;;;;;;;;;5110956;28;20418;-70
2022/01/06 17:34:56;;;;;;;49.13;16.98;;;;;;;;;;5087150;28;20043;-72
2022/01/06 17:38:00;;;;;;;45.72;18.38;;;;;;;;;;5113253;28;20054;-71
2022/01/06 17:41:05;;;;;;;40.33;16.83;;;;;;;;;;5115454;28;20046;-72
2022/01/06 17:44:09;;;;;;;39.65;17.17;;;;;;;;;;5115186;28;20047;-71
2022/01/06 17:47:14;;;;;;;61.38;17.48;;;;;;;;;;5116047;28;20038;-70
2022/01/06 17:50:18;;;;;;;47.55;18.90;;;;;;;;;;5102874;28;20062;-71
2022/01/06 17:53:22;;;;;;;46.47;22.30;;;;;;;;;;5115542;28;20054;-71
2022/01/06 17:56:26;;;;;;;68.70;34.67;;;;;;;;;;5115416;28;20054;-72
2022/01/06 17:59:31;;;;;;;72.60;30.73;;;;;;;;;;5115262;28;20501;-70
2022/01/06 18:02:38;;;;;;;55.72;24.15;;;;;;;;;;5090916;28;20055;-71
2022/01/06 18:05:50;;;;;;;44.42;19.90;;;;;;;;;;5114977;28;20502;-71
2022/01/06 18:11:19;;;;;;;;;;;;;;;;;;5115419;28;20046;-71
2022/01/06 18:12:18;;;;;;;63.45;25.63;;;;;;;;;;5115149;28;19915;-71
2022/01/06 18:15:22;;;;;;;50.28;21.88;;;;;;;;;;5115104;28;20041;-71
2022/01/06 18:18:27;;;;;;;52.85;20.45;;;;;;;;;;5102469;28;20047;-70
2022/01/06 18:21:32;;;;;;;52.60;26.33;;;;;;;;;;5102194;28;20050;-71
2022/01/06 18:24:43;;;;;;;54.75;22.20;;;;;;;;;;5102811;28;20046;-73
2022/01/06 18:27:50;;;;;;;;;;;;;;;;;;5116472;28;20035;-74